Time;durP1;ratioP1;P1;durP2;ratioP2;P2;SDS_P1;SDS_P2;PMS_P1;PMS_P2;Temp;Humidity;BMP_temperature;BMP_pressure;BME280_temperature;BME280_humidity;BME280_pressure;Samples;Min_cycle;Max_cycle;Signal;HPM_P1;HPM_P2
2023/05/08 00:04:10;;;;;;;14.63;5.80;;;13.90;99.90;;;;;;21104856;28;20478;-78
2023/05/08 00:14:11;;;;;;;7.73;5.37;;;13.90;99.90;;;;;;21060054;28;20037;-78
2023/05/08 00:24:11;;;;;;;8.60;4.20;;;13.80;99.90;;;;;;21039978;22;20056;-77
2023/05/08 00:34:12;;;;;;;8.53;5.17;;;13.90;99.90;;;;;;21097991;28;20180;-77
2023/05/08 00:44:13;;;;;;;16.77;5.37;;;13.90;99.90;;;;;;21006154;28;20052;-76
2023/05/08 00:54:15;;;;;;;10.23;4.57;;;13.80;99.90;;;;;;20924858;28;20271;-77
2023/05/08 01:04:20;;;;;;;7.60;5.13;;;13.90;99.90;;;;;;20923443;28;20029;-78
2023/05/08 01:14:49;;;;;;;7.85;5.45;;;13.90;99.90;;;;;;20925766;28;20035;-78
2023/05/08 01:24:56;;;;;;;5.55;4.40;;;13.90;99.90;;;;;;20934574;28;20032;-78
2023/05/08 01:35:25;;;;;;;5.45;2.78;;;13.90;99.90;;;;;;21041003;28;20066;-77
2023/05/08 01:45:33;;;;;;;2.75;2.15;;;13.70;99.90;;;;;;20979771;28;20123;-78
2023/05/08 01:55:36;;;;;;;5.10;2.60;;;13.70;99.90;;;;;;20983830;28;20032;-76
2023/05/08 02:05:38;;;;;;;4.18;2.90;;;13.80;99.90;;;;;;21080272;28;20036;-77
2023/05/08 02:15:40;;;;;;;6.72;3.35;;;13.80;99.90;;;;;;20969972;28;20376;-78
2023/05/08 02:25:43;;;;;;;5.85;4.18;;;13.80;99.90;;;;;;20913989;28;20033;-78
2023/05/08 02:35:46;;;;;;;9.48;4.10;;;13.80;99.90;;;;;;20915774;28;20029;-77
2023/05/08 02:46:18;;;;;;;5.25;3.65;;;13.90;99.90;;;;;;20916651;28;20128;-78
2023/05/08 02:56:30;;;;;;;;;;;13.80;99.90;;;;;;20917214;28;20029;-76
2023/05/08 03:06:39;;;;;;;7.53;3.28;;;13.80;99.90;;;;;;20916090;28;19919;-77
2023/05/08 03:16:43;;;;;;;4.65;3.15;;;13.70;99.90;;;;;;20917540;28;20033;-78
2023/05/08 03:26:45;;;;;;;5.20;3.45;;;13.70;99.90;;;;;;20923244;28;20039;-77
2023/05/08 03:36:49;;;;;;;5.60;3.97;;;13.70;99.90;;;;;;20930897;28;20127;-78
2023/05/08 03:46:54;;;;;;;7.32;4.90;;;13.70;99.90;;;;;;20913916;28;20461;-77
2023/05/08 03:56:55;;;;;;;5.97;4.45;;;13.60;99.90;;;;;;20915430;28;20029;-76
2023/05/08 04:07:14;;;;;;;3.83;3.15;;;13.60;99.90;;;;;;20914583;28;20033;-76
2023/05/08 04:17:33;;;;;;;8.90;3.92;;;13.50;99.90;;;;;;20984966;28;20020;-77
2023/05/08 04:27:35;;;;;;;6.22;3.63;;;13.50;99.90;;;;;;21077898;28;20449;-77
2023/05/08 04:37:36;;;;;;;4.82;3.40;;;13.50;99.90;;;;;;21077218;28;20024;-77
2023/05/08 04:47:37;;;;;;;11.63;3.20;;;13.50;99.90;;;;;;20930836;28;20044;-77
2023/05/08 04:57:39;;;;;;;3.72;2.70;;;13.60;99.90;;;;;;20957422;28;20033;-77
2023/05/08 05:07:40;;;;;;;3.57;3.10;;;13.70;99.90;;;;;;20988472;28;20032;-77
2023/05/08 05:17:41;;;;;;;6.32;2.78;;;13.80;99.90;;;;;;20915771;28;20087;-76
2023/05/08 05:27:42;;;;;;;2.33;1.90;;;13.80;99.90;;;;;;20905761;28;20029;-77
2023/05/08 05:37:44;;;;;;;3.90;2.13;;;13.90;99.90;;;;;;20905088;28;20082;-77
2023/05/08 05:47:52;;;;;;;5.77;2.37;;;14.00;99.90;;;;;;20906229;28;20064;-75
2023/05/08 05:57:54;;;;;;;6.15;2.35;;;14.00;99.90;;;;;;20888598;28;20409;-77
2023/05/08 06:07:56;;;;;;;3.53;2.67;;;14.20;99.90;;;;;;20908110;28;20036;-77
2023/05/08 06:17:58;;;;;;;4.25;2.88;;;14.10;99.90;;;;;;20942694;28;20043;-77
2023/05/08 06:27:59;;;;;;;10.67;3.13;;;14.30;99.90;;;;;;21000342;22;20049;-77
2023/05/08 06:38:00;;;;;;;10.03;2.73;;;14.30;99.90;;;;;;20907877;28;20044;-77
2023/05/08 06:48:01;;;;;;;3.17;2.22;;;14.30;99.90;;;;;;20921866;28;20037;-77
2023/05/08 06:58:02;;;;;;;6.83;2.97;;;14.20;99.90;;;;;;20998710;28;20090;-77
2023/05/08 07:08:03;;;;;;;5.90;2.40;;;14.40;99.90;;;;;;21013109;28;20394;-77
2023/05/08 07:18:04;;;;;;;3.37;2.17;;;14.70;99.90;;;;;;20931484;28;20068;-77
2023/05/08 07:28:04;;;;;;;2.83;1.80;;;14.80;99.90;;;;;;20919836;28;20045;-77
2023/05/08 07:38:06;;;;;;;5.27;1.70;;;15.00;99.90;;;;;;20919751;28;20033;-77
2023/05/08 07:48:07;;;;;;;4.50;1.88;;;15.10;99.90;;;;;;20918774;28;20048;-77
2023/05/08 07:58:08;;;;;;;3.78;2.40;;;15.20;99.90;;;;;;20918035;28;20044;-77
2023/05/08 08:08:09;;;;;;;6.63;2.83;;;15.30;99.90;;;;;;20916074;28;20086;-77
2023/05/08 08:18:10;;;;;;;10.57;3.08;;;15.40;99.90;;;;;;20915711;28;20029;-77
2023/05/08 08:28:10;;;;;;;4.10;3.17;;;15.60;99.90;;;;;;20915154;28;20039;-77
2023/05/08 08:38:11;;;;;;;5.00;2.60;;;15.30;99.90;;;;;;20915011;28;20032;-77
2023/05/08 08:48:13;;;;;;;4.10;2.67;;;15.50;99.90;;;;;;20915856;28;20118;-77
2023/05/08 08:58:23;;;;;;;3.47;2.50;;;16.00;99.90;;;;;;20918146;28;20368;-77
2023/05/08 09:08:24;;;;;;;5.15;3.20;;;16.10;99.90;;;;;;20915598;28;20028;-77
2023/05/08 09:18:25;;;;;;;;;;;16.10;99.90;;;;;;20918902;28;20483;-76
2023/05/08 09:28:26;;;;;;;3.42;2.70;;;16.30;99.90;;;;;;20919944;28;19975;-77
2023/05/08 09:38:34;;;;;;;4.07;2.90;;;16.60;99.90;;;;;;20920802;28;20029;-78
2023/05/08 09:48:37;;;;;;;4.28;2.55;;;17.20;99.90;;;;;;20914086;28;20037;-78
2023/05/08 09:58:43;;;;;;;8.93;2.92;;;17.50;99.90;;;;;;20912162;28;20029;-78
2023/05/08 10:08:45;;;;;;;4.82;2.88;;;17.70;99.90;;;;;;20905076;28;20021;-77
2023/05/08 10:18:48;;;;;;;5.18;3.13;;;18.30;99.90;;;;;;20922188;28;20054;-78
2023/05/08 10:29:07;;;;;;;5.35;2.78;;;18.50;99.90;;;;;;20880023;28;20037;-77
2023/05/08 10:39:10;;;;;;;1.35;1.25;;;18.80;99.90;;;;;;20915979;28;20035;-77
2023/05/08 10:49:14;;;;;;;3.03;1.50;;;19.60;99.90;;;;;;20920417;28;20029;-77
2023/05/08 10:59:19;;;;;;;2.72;1.73;;;18.70;99.90;;;;;;20924632;28;20037;-77
2023/05/08 11:09:27;;;;;;;2.83;1.80;;;18.50;99.90;;;;;;20906487;28;20131;-77
2023/05/08 11:19:28;;;;;;;1.45;0.98;;;18.50;99.90;;;;;;20899640;28;20045;-77
2023/05/08 11:29:29;;;;;;;1.08;0.70;;;18.20;99.90;;;;;;20918923;28;20040;-77
2023/05/08 11:39:30;;;;;;;2.03;1.13;;;17.90;99.90;;;;;;20920478;28;20454;-77
2023/05/08 11:49:31;;;;;;;1.70;1.10;;;18.00;99.90;;;;;;20918637;28;20073;-78
2023/05/08 11:59:36;;;;;;;1.70;1.10;;;18.60;99.90;;;;;;20915625;28;20094;-77
2023/05/08 12:09:37;;;;;;;0.35;0.20;;;18.70;99.90;;;;;;20916629;28;20041;-76
2023/05/08 12:19:37;;;;;;;0.77;0.30;;;18.90;99.90;;;;;;20912971;28;20104;-77
2023/05/08 12:29:43;;;;;;;3.60;0.53;;;18.90;99.90;;;;;;20912216;28;20072;-77
2023/05/08 12:39:44;;;;;;;0.82;0.60;;;19.20;99.90;;;;;;20910776;28;20506;-76
2023/05/08 12:49:47;;;;;;;0.52;0.50;;;18.80;99.90;;;;;;20909504;28;20031;-77
2023/05/08 12:59:48;;;;;;;0.88;0.70;;;18.80;99.90;;;;;;20861373;28;20052;-76
2023/05/08 13:10:03;;;;;;;1.70;1.03;;;18.70;99.90;;;;;;20942257;28;20037;-78
2023/05/08 13:20:04;;;;;;;6.00;0.90;;;18.90;99.90;;;;;;20911948;28;20079;-77
2023/05/08 13:30:06;;;;;;;1.20;0.98;;;19.10;99.90;;;;;;20873855;28;20033;-78
2023/05/08 13:40:08;;;;;;;1.10;0.98;;;19.50;99.90;;;;;;20909298;28;20045;-78
2023/05/08 13:50:12;;;;;;;2.55;1.65;;;19.20;99.90;;;;;;20905083;28;20073;-78
2023/05/08 14:00:14;;;;;;;1.30;1.10;;;18.70;99.90;;;;;;20905292;28;20457;-77
2023/05/08 14:10:16;;;;;;;1.20;0.73;;;19.50;99.90;;;;;;20904457;28;20132;-77
2023/05/08 14:20:16;;;;;;;3.20;1.10;;;20.40;99.90;;;;;;20904306;28;20033;-77
2023/05/08 14:30:17;;;;;;;1.07;0.87;;;19.80;99.90;;;;;;20904206;28;20029;-76
2023/05/08 14:40:18;;;;;;;2.83;1.20;;;19.90;99.90;;;;;;20903987;28;20029;-77
2023/05/08 14:50:19;;;;;;;1.77;1.40;;;19.20;99.90;;;;;;20903119;28;20047;-77
2023/05/08 15:00:20;;;;;;;1.53;1.23;;;19.30;99.90;;;;;;20855990;28;20025;-77
2023/05/08 15:10:21;;;;;;;1.33;1.23;;;19.60;99.90;;;;;;20855112;28;20030;-77
2023/05/08 15:20:21;;;;;;;0.90;0.70;;;19.90;99.90;;;;;;20874110;28;20098;-78
2023/05/08 15:30:24;;;;;;;4.43;0.50;;;20.00;99.90;;;;;;20858977;28;20041;-76
2023/05/08 15:40:24;;;;;;;1.13;0.85;;;18.50;99.90;;;;;;20870245;28;20279;-77
2023/05/08 15:50:25;;;;;;;3.37;0.60;;;17.70;99.90;;;;;;20861960;28;20037;-77
2023/05/08 16:00:26;;;;;;;0.53;0.53;;;17.50;99.90;;;;;;20855259;28;20511;-77
2023/05/08 16:10:27;;;;;;;1.17;0.60;;;16.90;99.90;;;;;;20869891;28;20044;-77
2023/05/08 16:20:28;;;;;;;1.20;0.63;;;16.70;99.90;;;;;;20869509;28;20029;-77
2023/05/08 16:30:29;;;;;;;1.50;0.97;;;16.40;99.90;;;;;;20868018;28;20033;-77
2023/05/08 16:40:30;;;;;;;;;;;16.70;99.90;;;;;;20886063;28;20032;-77
2023/05/08 16:50:31;;;;;;;4.07;0.60;;;17.20;99.90;;;;;;20827736;28;19909;-76
2023/05/08 17:00:32;;;;;;;1.00;0.80;;;17.30;99.90;;;;;;20827048;28;20029;-76
2023/05/08 17:10:32;;;;;;;;;;;17.40;99.90;;;;;;20839033;28;20025;-76
2023/05/08 17:20:39;;;;;;;3.93;1.27;;;17.30;99.90;;;;;;20907715;28;19948;-76
2023/05/08 17:30:40;;;;;;;7.68;1.20;;;16.70;99.90;;;;;;20906876;28;20047;-77
2023/05/08 17:40:41;;;;;;;8.67;1.33;;;16.90;99.90;;;;;;20906512;28;20531;-77
2023/05/08 17:50:42;;;;;;;1.93;0.70;;;16.90;99.90;;;;;;20906577;28;20067;-77
2023/05/08 18:00:43;;;;;;;2.78;0.95;;;16.90;99.90;;;;;;20909940;28;20711;-78
2023/05/08 18:10:43;;;;;;;6.57;1.10;;;16.60;99.90;;;;;;20893487;28;20021;-77
2023/05/08 18:20:44;;;;;;;5.80;1.43;;;16.30;99.90;;;;;;20882976;28;20029;-77
2023/05/08 18:30:45;;;;;;;1.40;0.90;;;16.20;99.90;;;;;;21009868;22;20052;-77
2023/05/08 18:40:46;;;;;;;2.43;0.80;;;16.00;99.90;;;;;;20989318;28;20037;-76
2023/05/08 18:50:46;;;;;;;4.63;0.97;;;15.30;99.90;;;;;;20993690;28;20028;-77
2023/05/08 19:00:47;;;;;;;1.50;0.93;;;15.10;99.90;;;;;;21079597;28;20413;-77
2023/05/08 19:10:48;;;;;;;4.20;1.40;;;15.10;99.90;;;;;;21095545;28;20036;-76
2023/05/08 19:20:49;;;;;;;6.90;1.87;;;15.30;99.90;;;;;;21090618;28;20107;-77
2023/05/08 19:30:50;;;;;;;3.40;1.60;;;15.30;99.90;;;;;;21090865;28;20047;-77
2023/05/08 19:40:51;;;;;;;5.13;1.57;;;15.20;99.90;;;;;;21079461;28;20024;-76
2023/05/08 19:50:51;;;;;;;2.03;1.50;;;15.10;99.90;;;;;;21059211;28;20039;-77
2023/05/08 20:00:52;;;;;;;1.20;1.00;;;15.00;99.90;;;;;;21084432;28;20032;-77
2023/05/08 20:10:53;;;;;;;7.50;1.50;;;14.80;99.90;;;;;;21080546;28;20439;-76
2023/05/08 20:20:54;;;;;;;3.67;1.57;;;14.60;99.90;;;;;;21068975;28;20474;-76
2023/05/08 20:30:55;;;;;;;2.80;1.50;;;14.60;99.90;;;;;;21072431;28;20051;-75
2023/05/08 20:40:55;;;;;;;1.53;1.37;;;14.60;99.90;;;;;;21073498;28;20028;-76
2023/05/08 20:50:56;;;;;;;1.93;1.27;;;14.40;99.90;;;;;;21075053;28;20064;-76
2023/05/08 21:00:57;;;;;;;1.50;1.40;;;14.40;99.90;;;;;;21078585;28;20028;-76
2023/05/08 21:10:59;;;;;;;3.90;1.40;;;14.50;99.90;;;;;;21059959;28;20168;-76
2023/05/08 21:21:00;;;;;;;3.75;1.60;;;14.60;99.90;;;;;;21076065;28;20071;-76
2023/05/08 21:31:01;;;;;;;7.33;1.90;;;14.50;99.90;;;;;;21074705;28;20075;-75
2023/05/08 21:41:06;;;;;;;2.93;1.87;;;14.50;99.90;;;;;;21072845;28;20040;-76
2023/05/08 21:51:10;;;;;;;8.27;1.77;;;14.40;99.90;;;;;;21075523;28;20039;-76
2023/05/08 22:01:11;;;;;;;3.57;1.80;;;14.30;99.90;;;;;;21074715;28;20501;-76
2023/05/08 22:11:12;;;;;;;3.57;1.83;;;14.30;99.90;;;;;;21075591;28;20048;-76
2023/05/08 22:21:13;;;;;;;2.70;1.93;;;14.30;99.90;;;;;;21074450;28;20109;-76
2023/05/08 22:31:13;;;;;;;5.57;2.47;;;13.90;99.90;;;;;;21079666;28;20040;-76
2023/05/08 22:41:14;;;;;;;4.47;2.23;;;13.80;99.90;;;;;;21091769;28;20028;-76
2023/05/08 22:51:16;;;;;;;5.30;1.80;;;13.90;99.90;;;;;;21091127;28;20032;-77
2023/05/08 23:01:16;;;;;;;;;;;13.60;99.90;;;;;;21090438;28;20082;-76
2023/05/08 23:11:17;;;;;;;4.90;2.97;;;13.20;99.90;;;;;;21087062;28;19908;-76
2023/05/08 23:21:18;;;;;;;4.30;2.57;;;13.00;99.90;;;;;;21088321;28;20443;-77
2023/05/08 23:31:18;;;;;;;3.57;2.07;;;12.90;99.90;;;;;;21086181;28;20053;-77
2023/05/08 23:41:19;;;;;;;11.77;3.10;;;12.80;99.90;;;;;;21084828;28;20490;-77
2023/05/08 23:51:20;;;;;;;16.50;3.13;;;12.80;99.90;;;;;;21083558;28;20152;-76
